Alpine, Oregon
Current Conditions -  °F | °C
As of 5:35 PM on Monday 20 Oct 2014 (Local Time) from KCVO Reporting Station
Broken Clouds Broken Clouds  
Wind Chill: 16°   Ceiling: 10000
Heat Index: 16°   Visibility: 10mi
Dew Point: 12°   Wind: 8mph
Humidity: 77%   Direction: 210°SSW
Pressure: 29.83"   Gusts: NA
Location:  44.3398°N, 123.353°W
Report Text: KCVO 210035Z AUTO 21007KT 10SM FEW036 SCT043 BKN100 16/12 A2983 RMK AO1
Loading
Personal Weather Stations






























Interactive Weather Map
Tropical Storm Tracking
New forecast layout! Learn more

10-Day Weather Forecast

Advertisements
Track Severe Weather on mobile